sensor_id;sensor_type;location;lat;lon;timestamp;temperature;humidity
51719;DHT22;37795;53.236;5.704;2022-10-31T00:01:28;11.70;82.70
51719;DHT22;37795;53.236;5.704;2022-10-31T00:03:54;11.70;82.80
51719;DHT22;37795;53.236;5.704;2022-10-31T00:06:20;11.70;82.60
51719;DHT22;37795;53.236;5.704;2022-10-31T00:08:51;11.60;82.60
51719;DHT22;37795;53.236;5.704;2022-10-31T00:11:17;11.60;82.50
51719;DHT22;37795;53.236;5.704;2022-10-31T00:13:42;11.60;82.40
51719;DHT22;37795;53.236;5.704;2022-10-31T00:16:20;11.50;82.40
51719;DHT22;37795;53.236;5.704;2022-10-31T00:18:50;11.50;82.50
51719;DHT22;37795;53.236;5.704;2022-10-31T00:21:16;11.50;82.70
51719;DHT22;37795;53.236;5.704;2022-10-31T00:23:42;11.50;82.80
51719;DHT22;37795;53.236;5.704;2022-10-31T00:26:07;11.50;83.10
51719;DHT22;37795;53.236;5.704;2022-10-31T00:28:33;11.50;83.20
51719;DHT22;37795;53.236;5.704;2022-10-31T00:31:04;11.50;83.50
51719;DHT22;37795;53.236;5.704;2022-10-31T00:33:30;11.40;83.70
51719;DHT22;37795;53.236;5.704;2022-10-31T00:35:57;11.50;83.90
51719;DHT22;37795;53.236;5.704;2022-10-31T00:38:23;11.50;83.80
51719;DHT22;37795;53.236;5.704;2022-10-31T00:40:49;11.50;83.80
51719;DHT22;37795;53.236;5.704;2022-10-31T00:43:14;11.50;84.10
51719;DHT22;37795;53.236;5.704;2022-10-31T00:45:41;11.50;83.70
51719;DHT22;37795;53.236;5.704;2022-10-31T00:48:08;11.50;84.40
51719;DHT22;37795;53.236;5.704;2022-10-31T00:50:33;11.50;84.60
51719;DHT22;37795;53.236;5.704;2022-10-31T00:52:59;11.50;84.50
51719;DHT22;37795;53.236;5.704;2022-10-31T00:55:25;11.50;84.50
51719;DHT22;37795;53.236;5.704;2022-10-31T00:57:51;11.50;84.60
51719;DHT22;37795;53.236;5.704;2022-10-31T01:00:17;11.50;84.90
51719;DHT22;37795;53.236;5.704;2022-10-31T01:02:42;11.60;84.90
51719;DHT22;37795;53.236;5.704;2022-10-31T01:05:08;11.50;84.80
51719;DHT22;37795;53.236;5.704;2022-10-31T01:07:38;11.50;84.90
51719;DHT22;37795;53.236;5.704;2022-10-31T01:10:05;11.50;84.80
51719;DHT22;37795;53.236;5.704;2022-10-31T01:12:43;11.50;85.00
51719;DHT22;37795;53.236;5.704;2022-10-31T01:15:10;11.50;84.60
51719;DHT22;37795;53.236;5.704;2022-10-31T01:17:36;11.50;85.10
51719;DHT22;37795;53.236;5.704;2022-10-31T01:20:05;11.50;84.90
51719;DHT22;37795;53.236;5.704;2022-10-31T01:22:31;11.50;85.00
51719;DHT22;37795;53.236;5.704;2022-10-31T01:24:56;11.50;85.00
51719;DHT22;37795;53.236;5.704;2022-10-31T01:27:22;11.50;85.10
51719;DHT22;37795;53.236;5.704;2022-10-31T01:29:48;11.50;84.90
51719;DHT22;37795;53.236;5.704;2022-10-31T01:32:13;11.40;84.80
51719;DHT22;37795;53.236;5.704;2022-10-31T01:34:39;11.40;85.10
51719;DHT22;37795;53.236;5.704;2022-10-31T01:37:05;11.40;84.90
51719;DHT22;37795;53.236;5.704;2022-10-31T01:39:30;11.40;84.80
51719;DHT22;37795;53.236;5.704;2022-10-31T01:41:56;11.40;85.00
51719;DHT22;37795;53.236;5.704;2022-10-31T01:46:56;11.30;85.00
51719;DHT22;37795;53.236;5.704;2022-10-31T01:49:46;11.30;85.00
51719;DHT22;37795;53.236;5.704;2022-10-31T01:52:30;11.20;85.10
51719;DHT22;37795;53.236;5.704;2022-10-31T01:57:37;11.20;85.20
51719;DHT22;37795;53.236;5.704;2022-10-31T02:00:07;11.20;85.00
51719;DHT22;37795;53.236;5.704;2022-10-31T02:02:33;11.30;84.80
51719;DHT22;37795;53.236;5.704;2022-10-31T02:05:01;11.30;84.60
51719;DHT22;37795;53.236;5.704;2022-10-31T02:07:36;11.30;84.50
51719;DHT22;37795;53.236;5.704;2022-10-31T02:10:03;11.20;84.50
51719;DHT22;37795;53.236;5.704;2022-10-31T02:12:31;11.30;84.30
51719;DHT22;37795;53.236;5.704;2022-10-31T02:14:59;11.30;84.20
51719;DHT22;37795;53.236;5.704;2022-10-31T02:17:25;11.30;84.10
51719;DHT22;37795;53.236;5.704;2022-10-31T02:30:40;11.20;84.00
51719;DHT22;37795;53.236;5.704;2022-10-31T02:33:21;11.20;83.90
51719;DHT22;37795;53.236;5.704;2022-10-31T02:36:15;11.20;84.00
51719;DHT22;37795;53.236;5.704;2022-10-31T02:41:37;11.20;84.20
51719;DHT22;37795;53.236;5.704;2022-10-31T02:44:30;11.10;84.00
51719;DHT22;37795;53.236;5.704;2022-10-31T02:46:59;11.10;84.10
51719;DHT22;37795;53.236;5.704;2022-10-31T02:52:16;11.10;84.10
51719;DHT22;37795;53.236;5.704;2022-10-31T02:54:44;11.10;84.40
51719;DHT22;37795;53.236;5.704;2022-10-31T02:57:10;11.10;84.20
51719;DHT22;37795;53.236;5.704;2022-10-31T02:59:41;11.10;84.10
51719;DHT22;37795;53.236;5.704;2022-10-31T03:09:57;11.00;84.10
51719;DHT22;37795;53.236;5.704;2022-10-31T03:12:29;10.90;84.30
51719;DHT22;37795;53.236;5.704;2022-10-31T03:15:16;10.80;84.90
51719;DHT22;37795;53.236;5.704;2022-10-31T03:18:07;10.80;85.10
51719;DHT22;37795;53.236;5.704;2022-10-31T03:20:41;10.80;85.00
51719;DHT22;37795;53.236;5.704;2022-10-31T03:23:12;10.80;84.80
51719;DHT22;37795;53.236;5.704;2022-10-31T03:25:39;10.80;84.70
51719;DHT22;37795;53.236;5.704;2022-10-31T03:28:07;10.80;84.50
51719;DHT22;37795;53.236;5.704;2022-10-31T03:30:36;10.80;84.40
51719;DHT22;37795;53.236;5.704;2022-10-31T03:33:07;10.80;84.30
51719;DHT22;37795;53.236;5.704;2022-10-31T03:35:36;10.80;84.20
51719;DHT22;37795;53.236;5.704;2022-10-31T03:38:03;10.80;84.30
51719;DHT22;37795;53.236;5.704;2022-10-31T03:40:30;10.80;84.20
51719;DHT22;37795;53.236;5.704;2022-10-31T03:43:00;10.80;84.30
51719;DHT22;37795;53.236;5.704;2022-10-31T03:45:30;10.80;84.40
51719;DHT22;37795;53.236;5.704;2022-10-31T03:47:59;10.70;84.40
51719;DHT22;37795;53.236;5.704;2022-10-31T03:50:29;10.70;84.10
51719;DHT22;37795;53.236;5.704;2022-10-31T03:53:06;10.70;84.70
51719;DHT22;37795;53.236;5.704;2022-10-31T03:55:42;10.70;84.60
51719;DHT22;37795;53.236;5.704;2022-10-31T03:58:17;10.60;84.80
51719;DHT22;37795;53.236;5.704;2022-10-31T04:00:45;10.70;84.70
51719;DHT22;37795;53.236;5.704;2022-10-31T04:03:16;10.70;84.60
51719;DHT22;37795;53.236;5.704;2022-10-31T04:05:45;10.70;84.60
51719;DHT22;37795;53.236;5.704;2022-10-31T04:08:16;10.70;84.50
51719;DHT22;37795;53.236;5.704;2022-10-31T04:10:44;10.50;84.90
51719;DHT22;37795;53.236;5.704;2022-10-31T04:13:16;10.60;84.50
51719;DHT22;37795;53.236;5.704;2022-10-31T04:15:43;10.60;84.60
51719;DHT22;37795;53.236;5.704;2022-10-31T04:18:10;10.60;84.40
51719;DHT22;37795;53.236;5.704;2022-10-31T04:20:38;10.60;84.70
51719;DHT22;37795;53.236;5.704;2022-10-31T04:23:04;10.50;84.00
51719;DHT22;37795;53.236;5.704;2022-10-31T04:25:30;10.50;84.90
51719;DHT22;37795;53.236;5.704;2022-10-31T04:27:56;10.50;84.70
51719;DHT22;37795;53.236;5.704;2022-10-31T04:30:22;10.50;84.50
51719;DHT22;37795;53.236;5.704;2022-10-31T04:32:47;10.50;84.60
51719;DHT22;37795;53.236;5.704;2022-10-31T04:35:13;10.50;84.80
51719;DHT22;37795;53.236;5.704;2022-10-31T04:37:39;10.40;85.00
51719;DHT22;37795;53.236;5.704;2022-10-31T04:40:05;10.40;85.10
51719;DHT22;37795;53.236;5.704;2022-10-31T04:42:31;10.40;85.00
51719;DHT22;37795;53.236;5.704;2022-10-31T04:44:56;10.40;85.40
51719;DHT22;37795;53.236;5.704;2022-10-31T04:47:22;10.40;85.40
51719;DHT22;37795;53.236;5.704;2022-10-31T04:49:48;10.40;85.20
51719;DHT22;37795;53.236;5.704;2022-10-31T04:52:13;10.40;85.30
51719;DHT22;37795;53.236;5.704;2022-10-31T04:54:39;10.40;85.20
51719;DHT22;37795;53.236;5.704;2022-10-31T04:57:05;10.40;85.00
51719;DHT22;37795;53.236;5.704;2022-10-31T04:59:30;10.40;85.00
51719;DHT22;37795;53.236;5.704;2022-10-31T05:01:56;10.40;85.00
51719;DHT22;37795;53.236;5.704;2022-10-31T05:04:22;10.40;85.10
51719;DHT22;37795;53.236;5.704;2022-10-31T05:06:48;10.30;84.90
51719;DHT22;37795;53.236;5.704;2022-10-31T05:09:14;10.30;85.10
51719;DHT22;37795;53.236;5.704;2022-10-31T05:11:39;10.30;85.40
51719;DHT22;37795;53.236;5.704;2022-10-31T05:14:05;10.30;85.50
51719;DHT22;37795;53.236;5.704;2022-10-31T05:16:31;10.30;85.40
51719;DHT22;37795;53.236;5.704;2022-10-31T05:18:56;10.30;85.50
51719;DHT22;37795;53.236;5.704;2022-10-31T05:21:22;10.30;85.60
51719;DHT22;37795;53.236;5.704;2022-10-31T05:23:48;10.30;85.40
51719;DHT22;37795;53.236;5.704;2022-10-31T05:26:14;10.20;85.40
51719;DHT22;37795;53.236;5.704;2022-10-31T05:28:40;10.20;85.10
51719;DHT22;37795;53.236;5.704;2022-10-31T05:31:05;10.20;85.20
51719;DHT22;37795;53.236;5.704;2022-10-31T05:33:31;10.10;84.80
51719;DHT22;37795;53.236;5.704;2022-10-31T05:35:57;10.20;85.10
51719;DHT22;37795;53.236;5.704;2022-10-31T05:38:22;10.20;85.10
51719;DHT22;37795;53.236;5.704;2022-10-31T05:40:48;10.20;85.10
51719;DHT22;37795;53.236;5.704;2022-10-31T05:43:14;10.20;85.00
51719;DHT22;37795;53.236;5.704;2022-10-31T05:45:39;10.20;85.10
51719;DHT22;37795;53.236;5.704;2022-10-31T05:48:05;10.20;85.20
51719;DHT22;37795;53.236;5.704;2022-10-31T05:50:31;10.20;85.20
51719;DHT22;37795;53.236;5.704;2022-10-31T05:53:03;10.20;85.20
51719;DHT22;37795;53.236;5.704;2022-10-31T05:55:29;10.10;85.10
51719;DHT22;37795;53.236;5.704;2022-10-31T05:57:55;10.20;85.10
51719;DHT22;37795;53.236;5.704;2022-10-31T06:00:21;10.20;85.20
51719;DHT22;37795;53.236;5.704;2022-10-31T06:02:48;10.10;85.00
51719;DHT22;37795;53.236;5.704;2022-10-31T06:05:14;10.10;85.00
51719;DHT22;37795;53.236;5.704;2022-10-31T06:07:40;10.10;85.00
51719;DHT22;37795;53.236;5.704;2022-10-31T06:10:07;10.10;85.10
51719;DHT22;37795;53.236;5.704;2022-10-31T06:12:34;10.10;85.10
51719;DHT22;37795;53.236;5.704;2022-10-31T06:15:08;10.10;85.00
51719;DHT22;37795;53.236;5.704;2022-10-31T06:17:34;10.00;85.00
51719;DHT22;37795;53.236;5.704;2022-10-31T06:20:01;10.00;84.90
51719;DHT22;37795;53.236;5.704;2022-10-31T06:22:27;10.00;84.90
51719;DHT22;37795;53.236;5.704;2022-10-31T06:24:52;10.00;85.00
51719;DHT22;37795;53.236;5.704;2022-10-31T06:27:18;10.00;85.00
51719;DHT22;37795;53.236;5.704;2022-10-31T06:29:44;10.00;85.00
51719;DHT22;37795;53.236;5.704;2022-10-31T06:32:13;10.00;85.00
51719;DHT22;37795;53.236;5.704;2022-10-31T06:34:39;10.00;84.90
51719;DHT22;37795;53.236;5.704;2022-10-31T06:37:07;10.00;85.00
51719;DHT22;37795;53.236;5.704;2022-10-31T06:39:33;10.00;85.00
51719;DHT22;37795;53.236;5.704;2022-10-31T06:41:59;10.00;85.00
51719;DHT22;37795;53.236;5.704;2022-10-31T06:44:24;10.00;84.90
51719;DHT22;37795;53.236;5.704;2022-10-31T06:46:50;10.00;84.90
51719;DHT22;37795;53.236;5.704;2022-10-31T06:49:16;10.10;85.00
51719;DHT22;37795;53.236;5.704;2022-10-31T06:51:42;10.00;84.90
51719;DHT22;37795;53.236;5.704;2022-10-31T06:59:35;10.40;84.40
51719;DHT22;37795;53.236;5.704;2022-10-31T07:02:00;10.00;85.40
51719;DHT22;37795;53.236;5.704;2022-10-31T07:04:26;10.20;85.10
51719;DHT22;37795;53.236;5.704;2022-10-31T07:06:52;10.20;84.70
51719;DHT22;37795;53.236;5.704;2022-10-31T07:09:18;10.30;84.50
51719;DHT22;37795;53.236;5.704;2022-10-31T07:11:44;10.30;84.20
51719;DHT22;37795;53.236;5.704;2022-10-31T07:14:09;10.30;83.90
51719;DHT22;37795;53.236;5.704;2022-10-31T07:16:35;10.40;84.00
51719;DHT22;37795;53.236;5.704;2022-10-31T07:19:00;10.40;84.10
51719;DHT22;37795;53.236;5.704;2022-10-31T07:21:26;10.80;84.10
51719;DHT22;37795;53.236;5.704;2022-10-31T07:23:52;11.00;83.40
51719;DHT22;37795;53.236;5.704;2022-10-31T07:26:17;11.10;82.70
51719;DHT22;37795;53.236;5.704;2022-10-31T07:28:43;11.20;82.40
51719;DHT22;37795;53.236;5.704;2022-10-31T07:31:10;11.30;81.90
51719;DHT22;37795;53.236;5.704;2022-10-31T07:33:36;11.30;81.70
51719;DHT22;37795;53.236;5.704;2022-10-31T07:36:02;11.20;81.90
51719;DHT22;37795;53.236;5.704;2022-10-31T07:38:28;11.20;81.60
51719;DHT22;37795;53.236;5.704;2022-10-31T07:40:53;11.20;82.00
51719;DHT22;37795;53.236;5.704;2022-10-31T07:43:19;11.20;81.90
51719;DHT22;37795;53.236;5.704;2022-10-31T07:45:50;11.20;82.20
51719;DHT22;37795;53.236;5.704;2022-10-31T07:48:16;11.30;82.10
51719;DHT22;37795;53.236;5.704;2022-10-31T07:50:42;11.80;81.20
51719;DHT22;37795;53.236;5.704;2022-10-31T07:53:11;12.00;80.10
51719;DHT22;37795;53.236;5.704;2022-10-31T07:55:38;12.60;78.90
51719;DHT22;37795;53.236;5.704;2022-10-31T07:58:06;12.50;78.20
51719;DHT22;37795;53.236;5.704;2022-10-31T08:00:34;12.50;78.50
51719;DHT22;37795;53.236;5.704;2022-10-31T08:03:05;12.60;78.50
51719;DHT22;37795;53.236;5.704;2022-10-31T08:05:31;13.00;78.30
51719;DHT22;37795;53.236;5.704;2022-10-31T08:07:58;13.40;77.00
51719;DHT22;37795;53.236;5.704;2022-10-31T08:10:24;14.00;75.90
51719;DHT22;37795;53.236;5.704;2022-10-31T08:13:04;14.50;73.70
51719;DHT22;37795;53.236;5.704;2022-10-31T08:15:31;15.00;72.30
51719;DHT22;37795;53.236;5.704;2022-10-31T08:17:57;15.60;70.70
51719;DHT22;37795;53.236;5.704;2022-10-31T08:20:22;15.90;69.40
51719;DHT22;37795;53.236;5.704;2022-10-31T08:23:01;16.30;68.30
51719;DHT22;37795;53.236;5.704;2022-10-31T08:25:29;16.70;67.30
51719;DHT22;37795;53.236;5.704;2022-10-31T08:27:56;17.50;65.40
51719;DHT22;37795;53.236;5.704;2022-10-31T08:30:26;17.80;63.60
51719;DHT22;37795;53.236;5.704;2022-10-31T08:33:11;18.30;62.40
51719;DHT22;37795;53.236;5.704;2022-10-31T08:35:37;18.50;62.30
51719;DHT22;37795;53.236;5.704;2022-10-31T08:38:03;18.50;60.70
51719;DHT22;37795;53.236;5.704;2022-10-31T08:40:30;19.00;61.40
51719;DHT22;37795;53.236;5.704;2022-10-31T08:43:08;19.40;60.40
51719;DHT22;37795;53.236;5.704;2022-10-31T08:45:35;19.80;59.50
51719;DHT22;37795;53.236;5.704;2022-10-31T08:48:04;20.30;58.20
51719;DHT22;37795;53.236;5.704;2022-10-31T08:50:32;21.00;57.20
51719;DHT22;37795;53.236;5.704;2022-10-31T08:53:02;21.40;56.00
51719;DHT22;37795;53.236;5.704;2022-10-31T08:55:28;21.90;55.00
51719;DHT22;37795;53.236;5.704;2022-10-31T08:57:56;21.30;55.50
51719;DHT22;37795;53.236;5.704;2022-10-31T09:00:22;21.70;54.80
51719;DHT22;37795;53.236;5.704;2022-10-31T09:02:47;22.20;54.00
51719;DHT22;37795;53.236;5.704;2022-10-31T09:05:13;22.40;53.10
51719;DHT22;37795;53.236;5.704;2022-10-31T09:07:39;22.30;53.70
51719;DHT22;37795;53.236;5.704;2022-10-31T09:10:05;22.20;54.20
51719;DHT22;37795;53.236;5.704;2022-10-31T09:12:30;22.70;53.20
51719;DHT22;37795;53.236;5.704;2022-10-31T09:14:56;22.60;53.60
51719;DHT22;37795;53.236;5.704;2022-10-31T09:17:22;22.90;52.70
51719;DHT22;37795;53.236;5.704;2022-10-31T09:19:48;23.20;51.80
51719;DHT22;37795;53.236;5.704;2022-10-31T09:22:14;23.40;51.50
51719;DHT22;37795;53.236;5.704;2022-10-31T09:24:39;23.30;51.20
51719;DHT22;37795;53.236;5.704;2022-10-31T09:27:05;23.80;51.10
51719;DHT22;37795;53.236;5.704;2022-10-31T09:29:30;23.70;51.40
51719;DHT22;37795;53.236;5.704;2022-10-31T09:31:56;24.30;50.50
51719;DHT22;37795;53.236;5.704;2022-10-31T09:34:22;24.40;50.30
51719;DHT22;37795;53.236;5.704;2022-10-31T09:36:48;24.00;50.30
51719;DHT22;37795;53.236;5.704;2022-10-31T09:39:13;23.80;50.00
51719;DHT22;37795;53.236;5.704;2022-10-31T09:42:06;24.20;50.10
51719;DHT22;37795;53.236;5.704;2022-10-31T09:44:59;24.30;49.70
51719;DHT22;37795;53.236;5.704;2022-10-31T09:50:06;23.20;51.60
51719;DHT22;37795;53.236;5.704;2022-10-31T09:52:41;21.90;54.60
51719;DHT22;37795;53.236;5.704;2022-10-31T09:55:18;22.30;52.80
51719;DHT22;37795;53.236;5.704;2022-10-31T09:57:45;22.10;54.40
51719;DHT22;37795;53.236;5.704;2022-10-31T10:00:17;21.70;55.80
51719;DHT22;37795;53.236;5.704;2022-10-31T10:02:51;22.70;53.60
51719;DHT22;37795;53.236;5.704;2022-10-31T10:05:23;22.90;52.70
51719;DHT22;37795;53.236;5.704;2022-10-31T10:10:50;21.60;55.40
51719;DHT22;37795;53.236;5.704;2022-10-31T10:16:29;21.70;55.40
51719;DHT22;37795;53.236;5.704;2022-10-31T10:25:20;19.90;59.30
51719;DHT22;37795;53.236;5.704;2022-10-31T10:31:15;19.70;60.40
51719;DHT22;37795;53.236;5.704;2022-10-31T10:36:40;18.50;62.80
51719;DHT22;37795;53.236;5.704;2022-10-31T10:39:18;18.50;63.80
51719;DHT22;37795;53.236;5.704;2022-10-31T10:41:48;18.10;64.00
51719;DHT22;37795;53.236;5.704;2022-10-31T10:44:33;18.00;64.10
51719;DHT22;37795;53.236;5.704;2022-10-31T10:47:17;18.30;63.80
51719;DHT22;37795;53.236;5.704;2022-10-31T10:50:20;17.90;64.40
51719;DHT22;37795;53.236;5.704;2022-10-31T10:59:37;17.70;66.30
51719;DHT22;37795;53.236;5.704;2022-10-31T11:02:08;17.60;66.60
51719;DHT22;37795;53.236;5.704;2022-10-31T11:04:40;17.50;66.80
51719;DHT22;37795;53.236;5.704;2022-10-31T11:07:10;17.30;66.90
51719;DHT22;37795;53.236;5.704;2022-10-31T11:09:36;17.40;66.80
51719;DHT22;37795;53.236;5.704;2022-10-31T11:12:30;17.10;67.40
51719;DHT22;37795;53.236;5.704;2022-10-31T11:14:59;17.20;68.00
51719;DHT22;37795;53.236;5.704;2022-10-31T11:22:38;17.20;67.70
51719;DHT22;37795;53.236;5.704;2022-10-31T11:27:45;17.20;68.50
51719;DHT22;37795;53.236;5.704;2022-10-31T11:30:13;17.20;68.30
51719;DHT22;37795;53.236;5.704;2022-10-31T11:32:49;17.30;68.50
51719;DHT22;37795;53.236;5.704;2022-10-31T11:35:18;17.60;68.70
51719;DHT22;37795;53.236;5.704;2022-10-31T11:37:46;17.60;66.40
51719;DHT22;37795;53.236;5.704;2022-10-31T11:40:18;17.70;65.70
51719;DHT22;37795;53.236;5.704;2022-10-31T11:42:45;17.70;65.10
51719;DHT22;37795;53.236;5.704;2022-10-31T11:45:27;17.80;65.20
51719;DHT22;37795;53.236;5.704;2022-10-31T11:47:55;18.00;64.70
51719;DHT22;37795;53.236;5.704;2022-10-31T11:50:33;18.20;65.50
51719;DHT22;37795;53.236;5.704;2022-10-31T11:53:01;17.80;65.30
51719;DHT22;37795;53.236;5.704;2022-10-31T11:55:37;17.90;65.80
51719;DHT22;37795;53.236;5.704;2022-10-31T11:58:04;17.80;65.50
51719;DHT22;37795;53.236;5.704;2022-10-31T12:00:32;17.60;67.00
51719;DHT22;37795;53.236;5.704;2022-10-31T12:06:23;17.40;67.00
51719;DHT22;37795;53.236;5.704;2022-10-31T12:08:50;17.40;66.50
51719;DHT22;37795;53.236;5.704;2022-10-31T12:17:14;17.00;65.80
51719;DHT22;37795;53.236;5.704;2022-10-31T12:28:03;16.90;67.60
51719;DHT22;37795;53.236;5.704;2022-10-31T12:31:01;17.00;67.90
51719;DHT22;37795;53.236;5.704;2022-10-31T12:33:52;16.90;67.90
51719;DHT22;37795;53.236;5.704;2022-10-31T12:44:09;17.50;65.30
51719;DHT22;37795;53.236;5.704;2022-10-31T13:00:15;22.50;53.60
51719;DHT22;37795;53.236;5.704;2022-10-31T13:05:48;22.40;51.80
51719;DHT22;37795;53.236;5.704;2022-10-31T13:08:17;21.10;55.90
51719;DHT22;37795;53.236;5.704;2022-10-31T13:11:07;21.60;55.60
51719;DHT22;37795;53.236;5.704;2022-10-31T13:16:28;23.30;51.60
51719;DHT22;37795;53.236;5.704;2022-10-31T13:19:02;24.00;49.90
51719;DHT22;37795;53.236;5.704;2022-10-31T13:24:16;25.20;48.60
51719;DHT22;37795;53.236;5.704;2022-10-31T13:26:47;26.20;46.70
51719;DHT22;37795;53.236;5.704;2022-10-31T13:31:52;25.50;46.60
51719;DHT22;37795;53.236;5.704;2022-10-31T13:34:31;24.50;48.10
51719;DHT22;37795;53.236;5.704;2022-10-31T13:45:19;24.60;47.70
51719;DHT22;37795;53.236;5.704;2022-10-31T13:48:18;24.30;47.80
51719;DHT22;37795;53.236;5.704;2022-10-31T13:51:02;24.40;47.50
51719;DHT22;37795;53.236;5.704;2022-10-31T13:56:22;24.20;47.70
51719;DHT22;37795;53.236;5.704;2022-10-31T14:01:31;23.30;49.00
51719;DHT22;37795;53.236;5.704;2022-10-31T14:04:37;22.20;51.30
51719;DHT22;37795;53.236;5.704;2022-10-31T14:07:15;22.90;50.50
51719;DHT22;37795;53.236;5.704;2022-10-31T14:10:05;23.70;48.60
51719;DHT22;37795;53.236;5.704;2022-10-31T14:12:38;23.30;48.40
51719;DHT22;37795;53.236;5.704;2022-10-31T14:15:19;24.00;47.70
51719;DHT22;37795;53.236;5.704;2022-10-31T14:17:58;22.90;49.80
51719;DHT22;37795;53.236;5.704;2022-10-31T14:20:44;22.70;49.70
51719;DHT22;37795;53.236;5.704;2022-10-31T14:28:52;20.40;55.20
51719;DHT22;37795;53.236;5.704;2022-10-31T14:31:38;19.90;56.50
51719;DHT22;37795;53.236;5.704;2022-10-31T14:34:30;19.80;56.70
51719;DHT22;37795;53.236;5.704;2022-10-31T14:39:41;19.50;58.10
51719;DHT22;37795;53.236;5.704;2022-10-31T14:50:54;18.30;61.70
51719;DHT22;37795;53.236;5.704;2022-10-31T14:53:31;18.30;61.90
51719;DHT22;37795;53.236;5.704;2022-10-31T14:55:59;18.10;62.30
51719;DHT22;37795;53.236;5.704;2022-10-31T14:58:38;17.80;63.50
51719;DHT22;37795;53.236;5.704;2022-10-31T15:01:05;17.80;63.60
51719;DHT22;37795;53.236;5.704;2022-10-31T15:03:38;17.50;64.70
51719;DHT22;37795;53.236;5.704;2022-10-31T15:06:18;17.40;64.80
51719;DHT22;37795;53.236;5.704;2022-10-31T15:08:51;17.40;65.00
51719;DHT22;37795;53.236;5.704;2022-10-31T15:11:23;17.40;64.80
51719;DHT22;37795;53.236;5.704;2022-10-31T15:13:53;17.20;64.80
51719;DHT22;37795;53.236;5.704;2022-10-31T15:16:35;17.20;65.20
51719;DHT22;37795;53.236;5.704;2022-10-31T15:19:07;17.10;65.50
51719;DHT22;37795;53.236;5.704;2022-10-31T15:21:38;17.00;65.40
51719;DHT22;37795;53.236;5.704;2022-10-31T15:24:05;16.90;66.80
51719;DHT22;37795;53.236;5.704;2022-10-31T15:26:43;17.00;67.20
51719;DHT22;37795;53.236;5.704;2022-10-31T15:29:15;16.80;67.80
51719;DHT22;37795;53.236;5.704;2022-10-31T15:31:59;16.60;68.70
51719;DHT22;37795;53.236;5.704;2022-10-31T15:34:40;16.50;69.00
51719;DHT22;37795;53.236;5.704;2022-10-31T15:37:20;16.40;69.00
51719;DHT22;37795;53.236;5.704;2022-10-31T15:39:47;16.40;69.30
51719;DHT22;37795;53.236;5.704;2022-10-31T15:42:22;16.20;69.40
51719;DHT22;37795;53.236;5.704;2022-10-31T15:45:33;16.20;69.60
51719;DHT22;37795;53.236;5.704;2022-10-31T15:47:47;16.00;70.00
51719;DHT22;37795;53.236;5.704;2022-10-31T15:52:57;16.00;70.40
51719;DHT22;37795;53.236;5.704;2022-10-31T15:55:26;16.00;70.80
51719;DHT22;37795;53.236;5.704;2022-10-31T15:57:58;16.00;70.80
51719;DHT22;37795;53.236;5.704;2022-10-31T16:00:27;15.90;70.90
51719;DHT22;37795;53.236;5.704;2022-10-31T16:05:35;15.80;71.10
51719;DHT22;37795;53.236;5.704;2022-10-31T16:08:01;15.70;71.60
51719;DHT22;37795;53.236;5.704;2022-10-31T16:10:27;15.70;71.50
51719;DHT22;37795;53.236;5.704;2022-10-31T16:12:57;15.60;71.50
51719;DHT22;37795;53.236;5.704;2022-10-31T16:15:25;15.60;71.80
51719;DHT22;37795;53.236;5.704;2022-10-31T16:17:51;15.60;71.80
51719;DHT22;37795;53.236;5.704;2022-10-31T16:20:25;15.40;72.20
51719;DHT22;37795;53.236;5.704;2022-10-31T16:22:52;15.40;72.80
51719;DHT22;37795;53.236;5.704;2022-10-31T16:25:36;15.30;72.50
51719;DHT22;37795;53.236;5.704;2022-10-31T16:28:17;15.30;73.10
51719;DHT22;37795;53.236;5.704;2022-10-31T16:30:45;15.20;73.30
51719;DHT22;37795;53.236;5.704;2022-10-31T16:33:29;15.20;73.00
51719;DHT22;37795;53.236;5.704;2022-10-31T16:35:57;15.20;73.20
51719;DHT22;37795;53.236;5.704;2022-10-31T16:38:23;15.10;73.80
51719;DHT22;37795;53.236;5.704;2022-10-31T16:40:50;15.10;74.00
51719;DHT22;37795;53.236;5.704;2022-10-31T16:43:18;15.10;74.10
51719;DHT22;37795;53.236;5.704;2022-10-31T16:45:46;15.00;74.40
51719;DHT22;37795;53.236;5.704;2022-10-31T16:48:18;15.00;74.40
51719;DHT22;37795;53.236;5.704;2022-10-31T16:50:47;15.00;74.40
51719;DHT22;37795;53.236;5.704;2022-10-31T16:53:14;14.90;74.50
51719;DHT22;37795;53.236;5.704;2022-10-31T16:58:18;14.80;75.00
51719;DHT22;37795;53.236;5.704;2022-10-31T17:00:44;14.80;75.10
51719;DHT22;37795;53.236;5.704;2022-10-31T17:03:11;14.80;74.90
51719;DHT22;37795;53.236;5.704;2022-10-31T17:05:36;14.80;75.10
51719;DHT22;37795;53.236;5.704;2022-10-31T17:08:03;14.80;75.40
51719;DHT22;37795;53.236;5.704;2022-10-31T17:10:29;14.80;75.20
51719;DHT22;37795;53.236;5.704;2022-10-31T17:12:55;14.80;75.30
51719;DHT22;37795;53.236;5.704;2022-10-31T17:15:27;14.70;75.20
51719;DHT22;37795;53.236;5.704;2022-10-31T17:17:53;14.70;75.20
51719;DHT22;37795;53.236;5.704;2022-10-31T17:20:25;14.70;75.30
51719;DHT22;37795;53.236;5.704;2022-10-31T17:22:51;14.70;75.30
51719;DHT22;37795;53.236;5.704;2022-10-31T17:25:19;14.70;75.20
51719;DHT22;37795;53.236;5.704;2022-10-31T17:27:45;14.60;75.40
51719;DHT22;37795;53.236;5.704;2022-10-31T17:30:15;14.60;75.30
51719;DHT22;37795;53.236;5.704;2022-10-31T17:32:43;14.60;75.90
51719;DHT22;37795;53.236;5.704;2022-10-31T17:35:10;14.60;75.60
51719;DHT22;37795;53.236;5.704;2022-10-31T17:37:38;14.60;75.90
51719;DHT22;37795;53.236;5.704;2022-10-31T17:40:04;14.60;75.90
51719;DHT22;37795;53.236;5.704;2022-10-31T17:42:31;14.60;76.00
51719;DHT22;37795;53.236;5.704;2022-10-31T17:44:56;14.50;76.40
51719;DHT22;37795;53.236;5.704;2022-10-31T17:47:22;14.50;76.20
51719;DHT22;37795;53.236;5.704;2022-10-31T17:49:48;14.50;76.30
51719;DHT22;37795;53.236;5.704;2022-10-31T17:52:13;14.50;76.30
51719;DHT22;37795;53.236;5.704;2022-10-31T17:54:39;14.50;76.30
51719;DHT22;37795;53.236;5.704;2022-10-31T17:57:05;14.50;76.30
51719;DHT22;37795;53.236;5.704;2022-10-31T17:59:30;14.50;76.20
51719;DHT22;37795;53.236;5.704;2022-10-31T18:01:56;14.50;76.30
51719;DHT22;37795;53.236;5.704;2022-10-31T18:04:22;14.50;76.40
51719;DHT22;37795;53.236;5.704;2022-10-31T18:06:48;14.40;76.50
51719;DHT22;37795;53.236;5.704;2022-10-31T18:09:15;14.40;76.70
51719;DHT22;37795;53.236;5.704;2022-10-31T18:11:41;14.40;77.00
51719;DHT22;37795;53.236;5.704;2022-10-31T18:14:08;14.30;77.00
51719;DHT22;37795;53.236;5.704;2022-10-31T18:16:34;14.40;77.10
51719;DHT22;37795;53.236;5.704;2022-10-31T18:18:59;14.30;77.00
51719;DHT22;37795;53.236;5.704;2022-10-31T18:21:27;14.40;76.80
51719;DHT22;37795;53.236;5.704;2022-10-31T18:23:58;14.40;76.80
51719;DHT22;37795;53.236;5.704;2022-10-31T18:26:26;14.40;77.00